RYR96TQ LEVC-LIME
Flight info
| Callsign | RYR96TQ |
|---|---|
| Flight time | 1h 30m |
| Altitude | 36000 |
| Route | SOPET M985 LUMAS DCT NIBIK DCT STP DCT RAPED DCT PIGOS DCT EKSID DCT NOSTA DCT EGHIN DCT ITCAP Q713 AMOXI T836 DIXER |
| Aircraft | B738/M-SDE2E3FGHIRWXY/LB1 |
Departure
| Time | 2026-05-07 13:57 |
|---|---|
| Airport | Valencia Airport (LEVC) |
Arrival
| Time | 2026-05-07 15:27 |
|---|---|
| Airport | Il Caravaggio International Airport (LIME) |
| Time | Latitude | Longitude | Altitude | Speed | Heading |
|---|---|---|---|---|---|
| 2026-05-07 13:28 | 39.49119 | -0.47544 | 208 ft | 0 kts | 45° |
| 2026-05-07 13:47 | 39.49111 | -0.47553 | 208 ft | 4 kts | 41° |
| 2026-05-07 13:47 | 39.49089 | -0.47574 | 211 ft | 4 kts | 27° |
| 2026-05-07 13:47 | 39.49065 | -0.47585 | 210 ft | 4 kts | 3° |
| 2026-05-07 13:48 | 39.49041 | -0.47579 | 208 ft | 4 kts | 318° |
| 2026-05-07 13:48 | 39.49034 | -0.47568 | 217 ft | 0 kts | 296° |
| 2026-05-07 13:50 | 39.49034 | -0.47570 | 217 ft | 1 kts | 296° |
| 2026-05-07 13:51 | 39.49047 | -0.47603 | 218 ft | 7 kts | 296° |
| 2026-05-07 13:51 | 39.49059 | -0.47671 | 213 ft | 8 kts | 263° |
| 2026-05-07 13:51 | 39.49044 | -0.47759 | 211 ft | 12 kts | 257° |
| 2026-05-07 13:51 | 39.49028 | -0.47875 | 208 ft | 13 kts | 276° |
| 2026-05-07 13:52 | 39.49063 | -0.47981 | 217 ft | 13 kts | 297° |
| 2026-05-07 13:52 | 39.49104 | -0.48087 | 210 ft | 14 kts | 296° |
| 2026-05-07 13:52 | 39.49152 | -0.48210 | 214 ft | 16 kts | 296° |
| 2026-05-07 13:52 | 39.49199 | -0.48334 | 211 ft | 15 kts | 297° |
| 2026-05-07 13:53 | 39.49246 | -0.48459 | 214 ft | 17 kts | 296° |
| 2026-05-07 13:53 | 39.49296 | -0.48592 | 208 ft | 16 kts | 297° |
| 2026-05-07 13:53 | 39.49347 | -0.48725 | 214 ft | 18 kts | 296° |
| 2026-05-07 13:53 | 39.49405 | -0.48878 | 210 ft | 19 kts | 296° |
| 2026-05-07 13:54 | 39.49461 | -0.49026 | 213 ft | 18 kts | 296° |
| 2026-05-07 13:54 | 39.49519 | -0.49178 | 210 ft | 20 kts | 296° |
| 2026-05-07 13:54 | 39.49583 | -0.49346 | 213 ft | 21 kts | 297° |
| 2026-05-07 13:54 | 39.49647 | -0.49515 | 210 ft | 21 kts | 296° |
| 2026-05-07 13:55 | 39.49710 | -0.49679 | 209 ft | 20 kts | 296° |
| 2026-05-07 13:55 | 39.49770 | -0.49838 | 214 ft | 19 kts | 296° |
| 2026-05-07 13:55 | 39.49786 | -0.49950 | 208 ft | 11 kts | 232° |
| 2026-05-07 13:55 | 39.49719 | -0.50004 | 210 ft | 12 kts | 206° |
| 2026-05-07 13:56 | 39.49640 | -0.50007 | 213 ft | 14 kts | 139° |
| 2026-05-07 13:56 | 39.49528 | -0.49730 | 212 ft | 67 kts | 116° |
| 2026-05-07 13:56 | 39.49225 | -0.48934 | 212 ft | 127 kts | 115° |
| 2026-05-07 13:56 | 39.48761 | -0.47721 | 358 ft | 161 kts | 113° |
| 2026-05-07 13:57 | 39.48282 | -0.46430 | 1037 ft | 162 kts | 114° |
| 2026-05-07 13:57 | 39.47774 | -0.45078 | 1663 ft | 169 kts | 114° |
| 2026-05-07 13:57 | 39.47202 | -0.43713 | 2223 ft | 180 kts | 125° |
| 2026-05-07 13:57 | 39.46170 | -0.42616 | 2547 ft | 202 kts | 148° |
| 2026-05-07 13:58 | 39.44925 | -0.41786 | 3029 ft | 207 kts | 143° |
| 2026-05-07 13:58 | 39.43885 | -0.40435 | 3353 ft | 217 kts | 123° |
| 2026-05-07 13:58 | 39.43059 | -0.38714 | 3654 ft | 232 kts | 118° |
| 2026-05-07 13:58 | 39.42205 | -0.36807 | 3925 ft | 253 kts | 119° |
| 2026-05-07 13:59 | 39.41321 | -0.34845 | 4575 ft | 259 kts | 119° |
| 2026-05-07 13:59 | 39.40405 | -0.32827 | 5339 ft | 259 kts | 118° |
| 2026-05-07 13:59 | 39.39926 | -0.30591 | 6020 ft | 263 kts | 86° |
| 2026-05-07 13:59 | 39.40474 | -0.28341 | 6758 ft | 267 kts | 59° |
| 2026-05-07 14:00 | 39.41762 | -0.26626 | 7426 ft | 274 kts | 35° |
| 2026-05-07 14:00 | 39.43530 | -0.25663 | 8148 ft | 280 kts | 14° |
| 2026-05-07 14:00 | 39.45464 | -0.25217 | 8914 ft | 283 kts | 10° |
| 2026-05-07 14:00 | 39.47433 | -0.24847 | 9668 ft | 287 kts | 9° |
| 2026-05-07 14:01 | 39.49411 | -0.24476 | 10314 ft | 294 kts | 9° |
| 2026-05-07 14:01 | 39.51524 | -0.24067 | 10500 ft | 318 kts | 9° |
| 2026-05-07 14:01 | 39.53779 | -0.23617 | 10961 ft | 330 kts | 10° |
| 2026-05-07 14:01 | 39.56041 | -0.23156 | 11659 ft | 334 kts | 9° |
| 2026-05-07 14:02 | 39.58365 | -0.22675 | 12390 ft | 339 kts | 9° |
| 2026-05-07 14:02 | 39.60723 | -0.22183 | 13097 ft | 344 kts | 9° |
| 2026-05-07 14:02 | 39.63100 | -0.21686 | 13844 ft | 349 kts | 9° |
| 2026-05-07 14:02 | 39.65474 | -0.21110 | 14473 ft | 355 kts | 16° |
| 2026-05-07 14:03 | 39.67765 | -0.19867 | 15173 ft | 358 kts | 30° |
| 2026-05-07 14:03 | 39.69787 | -0.17950 | 15855 ft | 362 kts | 44° |
| 2026-05-07 14:03 | 39.71612 | -0.15660 | 16565 ft | 366 kts | 46° |
| 2026-05-07 14:03 | 39.73419 | -0.13295 | 17219 ft | 372 kts | 46° |
| 2026-05-07 14:04 | 39.75259 | -0.10885 | 17860 ft | 378 kts | 46° |
| 2026-05-07 14:04 | 39.77114 | -0.08481 | 18464 ft | 383 kts | 46° |
| 2026-05-07 14:04 | 39.79025 | -0.06028 | 19067 ft | 387 kts | 46° |
| 2026-05-07 14:04 | 39.80964 | -0.03554 | 19682 ft | 391 kts | 46° |
| 2026-05-07 14:05 | 39.82920 | -0.01061 | 20276 ft | 395 kts | 46° |
| 2026-05-07 14:05 | 39.84844 | 0.01454 | 20855 ft | 399 kts | 48° |
| 2026-05-07 14:05 | 39.86761 | 0.04101 | 21449 ft | 402 kts | 49° |
| 2026-05-07 14:05 | 39.88670 | 0.06789 | 22038 ft | 405 kts | 49° |
| 2026-05-07 14:06 | 39.90603 | 0.09514 | 22613 ft | 409 kts | 49° |
| 2026-05-07 14:06 | 39.92532 | 0.12221 | 23172 ft | 413 kts | 49° |
| 2026-05-07 14:06 | 39.94507 | 0.14982 | 23690 ft | 417 kts | 49° |
| 2026-05-07 14:06 | 39.96506 | 0.17768 | 24117 ft | 422 kts | 49° |
| 2026-05-07 14:07 | 39.98504 | 0.20553 | 24515 ft | 426 kts | 49° |
| 2026-05-07 14:07 | 40.00555 | 0.23414 | 24923 ft | 431 kts | 49° |
| 2026-05-07 14:07 | 40.02596 | 0.26264 | 25339 ft | 435 kts | 49° |
| 2026-05-07 14:07 | 40.04673 | 0.29164 | 25747 ft | 439 kts | 49° |
| 2026-05-07 14:08 | 40.06780 | 0.32109 | 26132 ft | 444 kts | 49° |
| 2026-05-07 14:08 | 40.08904 | 0.35082 | 26509 ft | 449 kts | 49° |
| 2026-05-07 14:08 | 40.11029 | 0.38058 | 26877 ft | 453 kts | 49° |
| 2026-05-07 14:08 | 40.13195 | 0.41095 | 27268 ft | 457 kts | 49° |
| 2026-05-07 14:09 | 40.15381 | 0.44162 | 27645 ft | 461 kts | 49° |
| 2026-05-07 14:09 | 40.17554 | 0.47215 | 27997 ft | 465 kts | 49° |
| 2026-05-07 14:09 | 40.19779 | 0.50345 | 28339 ft | 469 kts | 49° |
| 2026-05-07 14:09 | 40.22024 | 0.53506 | 28688 ft | 473 kts | 49° |
| 2026-05-07 14:10 | 40.24250 | 0.56643 | 29014 ft | 477 kts | 49° |
| 2026-05-07 14:10 | 40.26535 | 0.59866 | 29357 ft | 482 kts | 49° |
| 2026-05-07 14:10 | 40.28801 | 0.63067 | 29654 ft | 486 kts | 49° |
| 2026-05-07 14:10 | 40.31114 | 0.66339 | 29965 ft | 490 kts | 49° |
| 2026-05-07 14:11 | 40.33435 | 0.69626 | 30237 ft | 493 kts | 49° |
| 2026-05-07 14:11 | 40.35784 | 0.72956 | 30505 ft | 496 kts | 49° |
| 2026-05-07 14:11 | 40.38135 | 0.76293 | 30773 ft | 499 kts | 49° |
| 2026-05-07 14:11 | 40.40473 | 0.79615 | 31012 ft | 503 kts | 49° |
| 2026-05-07 14:12 | 40.42858 | 0.83008 | 31280 ft | 505 kts | 49° |
| 2026-05-07 14:12 | 40.45250 | 0.86414 | 31601 ft | 506 kts | 50° |
| 2026-05-07 14:12 | 40.47642 | 0.89824 | 31973 ft | 506 kts | 50° |
| 2026-05-07 14:12 | 40.50014 | 0.93209 | 32327 ft | 506 kts | 50° |
| 2026-05-07 14:13 | 40.52408 | 0.96630 | 32642 ft | 507 kts | 50° |
| 2026-05-07 14:13 | 40.54770 | 1.00008 | 32951 ft | 508 kts | 50° |
| 2026-05-07 14:13 | 40.57172 | 1.03449 | 33280 ft | 509 kts | 50° |
| 2026-05-07 14:13 | 40.59573 | 1.06896 | 33614 ft | 509 kts | 50° |
| 2026-05-07 14:14 | 40.61968 | 1.10340 | 33927 ft | 510 kts | 51° |
| 2026-05-07 14:14 | 40.64339 | 1.13753 | 34211 ft | 509 kts | 50° |
| 2026-05-07 14:14 | 40.66736 | 1.17206 | 34572 ft | 507 kts | 50° |
| 2026-05-07 14:14 | 40.69119 | 1.20641 | 34971 ft | 503 kts | 50° |
| 2026-05-07 14:15 | 40.71446 | 1.23999 | 35389 ft | 499 kts | 50° |
| 2026-05-07 14:15 | 40.73784 | 1.27375 | 35825 ft | 495 kts | 49° |
| 2026-05-07 14:15 | 40.76116 | 1.30744 | 35964 ft | 497 kts | 49° |
| 2026-05-07 14:16 | 40.80760 | 1.37467 | 35960 ft | 495 kts | 49° |
| 2026-05-07 14:16 | 40.85403 | 1.44201 | 35961 ft | 492 kts | 49° |
| 2026-05-07 14:17 | 40.89981 | 1.50858 | 35964 ft | 490 kts | 50° |
| 2026-05-07 14:17 | 40.94582 | 1.57570 | 35965 ft | 490 kts | 50° |
| 2026-05-07 14:18 | 40.99145 | 1.64241 | 35969 ft | 490 kts | 50° |
| 2026-05-07 14:18 | 41.03697 | 1.70908 | 35973 ft | 491 kts | 50° |
| 2026-05-07 14:19 | 41.08295 | 1.77656 | 35980 ft | 493 kts | 50° |
| 2026-05-07 14:19 | 41.12880 | 1.84400 | 35993 ft | 494 kts | 50° |
| 2026-05-07 14:20 | 41.17517 | 1.91235 | 35998 ft | 496 kts | 50° |
| 2026-05-07 14:20 | 41.22120 | 1.98038 | 35991 ft | 498 kts | 50° |
| 2026-05-07 14:21 | 41.26773 | 2.04927 | 35997 ft | 499 kts | 50° |
| 2026-05-07 14:21 | 41.30583 | 2.12508 | 36001 ft | 492 kts | 69° |
| 2026-05-07 14:22 | 41.32683 | 2.21009 | 36014 ft | 483 kts | 82° |
| 2026-05-07 14:22 | 41.34160 | 2.29772 | 35992 ft | 484 kts | 83° |
| 2026-05-07 14:23 | 41.35639 | 2.38512 | 35994 ft | 484 kts | 82° |
| 2026-05-07 14:23 | 41.37155 | 2.47231 | 35987 ft | 485 kts | 82° |
| 2026-05-07 14:24 | 41.38687 | 2.55971 | 35984 ft | 485 kts | 82° |
| 2026-05-07 14:24 | 41.40213 | 2.64715 | 35986 ft | 485 kts | 82° |
| 2026-05-07 14:25 | 41.41737 | 2.73509 | 35981 ft | 485 kts | 82° |
| 2026-05-07 14:25 | 41.43237 | 2.82215 | 35981 ft | 485 kts | 82° |
| 2026-05-07 14:26 | 41.44742 | 2.90988 | 35973 ft | 484 kts | 82° |
| 2026-05-07 14:26 | 41.46243 | 2.99783 | 35977 ft | 484 kts | 82° |
| 2026-05-07 14:27 | 41.47725 | 3.08509 | 35978 ft | 484 kts | 82° |
| 2026-05-07 14:27 | 41.49209 | 3.17278 | 35976 ft | 484 kts | 82° |
| 2026-05-07 14:28 | 41.50432 | 3.24551 | 35976 ft | 484 kts | 82° |
| 2026-05-07 14:28 | 41.51904 | 3.33354 | 35976 ft | 484 kts | 82° |
| 2026-05-07 14:29 | 41.53364 | 3.42122 | 35984 ft | 484 kts | 82° |
| 2026-05-07 14:29 | 41.54814 | 3.50866 | 35982 ft | 484 kts | 82° |
| 2026-05-07 14:30 | 41.56265 | 3.59689 | 35981 ft | 485 kts | 82° |
| 2026-05-07 14:30 | 41.57699 | 3.68451 | 35982 ft | 485 kts | 82° |
| 2026-05-07 14:31 | 41.59139 | 3.77286 | 35983 ft | 486 kts | 82° |
| 2026-05-07 14:31 | 41.60577 | 3.86150 | 35982 ft | 487 kts | 82° |
| 2026-05-07 14:32 | 41.61997 | 3.94942 | 35979 ft | 487 kts | 82° |
| 2026-05-07 14:32 | 41.63425 | 4.03819 | 35982 ft | 488 kts | 82° |
| 2026-05-07 14:33 | 41.64845 | 4.12689 | 35985 ft | 488 kts | 83° |
| 2026-05-07 14:33 | 41.66260 | 4.21578 | 35984 ft | 488 kts | 83° |
| 2026-05-07 14:34 | 41.67667 | 4.30467 | 35984 ft | 489 kts | 83° |
| 2026-05-07 14:34 | 41.69072 | 4.39383 | 35988 ft | 489 kts | 83° |
| 2026-05-07 14:35 | 41.70468 | 4.48297 | 35985 ft | 489 kts | 83° |
| 2026-05-07 14:35 | 41.71851 | 4.57163 | 35984 ft | 489 kts | 83° |
| 2026-05-07 14:35 | 41.72671 | 4.61637 | 35963 ft | 493 kts | 72° |
| 2026-05-07 14:36 | 41.74258 | 4.65691 | 36001 ft | 496 kts | 54° |
| 2026-05-07 14:36 | 41.76586 | 4.69123 | 35979 ft | 495 kts | 37° |
| 2026-05-07 14:36 | 41.79440 | 4.71578 | 36014 ft | 489 kts | 25° |
| 2026-05-07 14:37 | 41.85466 | 4.75931 | 35990 ft | 491 kts | 25° |
| 2026-05-07 14:37 | 41.94464 | 4.82571 | 35982 ft | 492 kts | 26° |
| 2026-05-07 14:38 | 42.00416 | 4.87066 | 35988 ft | 493 kts | 26° |
| 2026-05-07 14:38 | 42.06402 | 4.91611 | 35990 ft | 493 kts | 26° |
| 2026-05-07 14:39 | 42.12369 | 4.96146 | 35989 ft | 493 kts | 26° |
| 2026-05-07 14:39 | 42.18321 | 5.00677 | 35990 ft | 492 kts | 26° |
| 2026-05-07 14:40 | 42.24306 | 5.05241 | 35988 ft | 491 kts | 26° |
| 2026-05-07 14:40 | 42.30245 | 5.09781 | 35988 ft | 490 kts | 26° |
| 2026-05-07 14:41 | 42.36162 | 5.14313 | 35987 ft | 489 kts | 26° |
| 2026-05-07 14:41 | 42.42068 | 5.18847 | 35987 ft | 488 kts | 26° |
| 2026-05-07 14:42 | 42.47983 | 5.23398 | 35990 ft | 487 kts | 25° |
| 2026-05-07 14:42 | 42.53853 | 5.27925 | 35991 ft | 486 kts | 26° |
| 2026-05-07 14:43 | 42.59707 | 5.32448 | 35989 ft | 485 kts | 25° |
| 2026-05-07 14:43 | 42.65514 | 5.37201 | 35979 ft | 488 kts | 35° |
| 2026-05-07 14:44 | 42.70282 | 5.43741 | 35985 ft | 491 kts | 54° |
| 2026-05-07 14:44 | 42.73917 | 5.51653 | 35987 ft | 491 kts | 59° |
| 2026-05-07 14:45 | 42.77403 | 5.59615 | 35986 ft | 491 kts | 59° |
| 2026-05-07 14:45 | 42.80921 | 5.67544 | 35983 ft | 491 kts | 58° |
| 2026-05-07 14:46 | 42.84495 | 5.75514 | 35982 ft | 490 kts | 58° |
| 2026-05-07 14:46 | 42.87273 | 5.81702 | 35985 ft | 490 kts | 58° |
| 2026-05-07 14:47 | 42.90837 | 5.89665 | 35982 ft | 490 kts | 58° |
| 2026-05-07 14:47 | 42.94374 | 5.97593 | 35982 ft | 489 kts | 58° |
| 2026-05-07 14:48 | 42.97894 | 6.05509 | 35984 ft | 489 kts | 58° |
| 2026-05-07 14:48 | 43.01411 | 6.13440 | 35985 ft | 489 kts | 58° |
| 2026-05-07 14:49 | 43.04936 | 6.21408 | 35985 ft | 488 kts | 58° |
| 2026-05-07 14:49 | 43.08456 | 6.29387 | 35975 ft | 488 kts | 58° |
| 2026-05-07 14:50 | 43.11962 | 6.37357 | 35971 ft | 488 kts | 59° |
| 2026-05-07 14:50 | 43.15455 | 6.45321 | 35960 ft | 488 kts | 59° |
| 2026-05-07 14:51 | 43.18943 | 6.53292 | 35960 ft | 488 kts | 59° |
| 2026-05-07 14:51 | 43.22463 | 6.61262 | 35955 ft | 488 kts | 56° |
| 2026-05-07 14:52 | 43.26383 | 6.68802 | 35974 ft | 487 kts | 52° |
| 2026-05-07 14:52 | 43.30436 | 6.76258 | 35975 ft | 487 kts | 52° |
| 2026-05-07 14:53 | 43.34418 | 6.83769 | 35975 ft | 486 kts | 53° |
| 2026-05-07 14:53 | 43.38384 | 6.91328 | 35972 ft | 486 kts | 53° |
| 2026-05-07 14:54 | 43.42324 | 6.98847 | 35969 ft | 485 kts | 53° |
| 2026-05-07 14:54 | 43.46284 | 7.06418 | 35970 ft | 485 kts | 53° |
| 2026-05-07 14:55 | 43.50222 | 7.13970 | 35973 ft | 484 kts | 53° |
| 2026-05-07 14:55 | 43.54130 | 7.21483 | 35997 ft | 484 kts | 53° |
| 2026-05-07 14:56 | 43.58054 | 7.29048 | 35994 ft | 483 kts | 53° |
| 2026-05-07 14:56 | 43.61964 | 7.36601 | 35996 ft | 483 kts | 53° |
| 2026-05-07 14:57 | 43.65844 | 7.44117 | 35993 ft | 483 kts | 53° |
| 2026-05-07 14:57 | 43.69757 | 7.51719 | 36000 ft | 482 kts | 53° |
| 2026-05-07 14:58 | 43.73615 | 7.59233 | 36003 ft | 482 kts | 53° |
| 2026-05-07 14:58 | 43.77500 | 7.66818 | 35986 ft | 482 kts | 53° |
| 2026-05-07 14:59 | 43.81377 | 7.74411 | 36005 ft | 481 kts | 53° |
| 2026-05-07 14:59 | 43.85242 | 7.81978 | 36008 ft | 481 kts | 53° |
| 2026-05-07 15:00 | 43.89096 | 7.89523 | 35982 ft | 480 kts | 53° |
| 2026-05-07 15:00 | 43.92317 | 7.95848 | 35999 ft | 480 kts | 53° |
| 2026-05-07 15:01 | 43.96159 | 8.03412 | 36002 ft | 479 kts | 53° |
| 2026-05-07 15:01 | 43.98044 | 8.07132 | 35978 ft | 466 kts | 53° |
| 2026-05-07 15:01 | 43.99880 | 8.10762 | 35898 ft | 455 kts | 53° |
| 2026-05-07 15:02 | 44.01721 | 8.14402 | 35384 ft | 457 kts | 53° |
| 2026-05-07 15:02 | 44.03540 | 8.18000 | 34892 ft | 458 kts | 53° |
| 2026-05-07 15:02 | 44.05384 | 8.21657 | 34380 ft | 459 kts | 53° |
| 2026-05-07 15:02 | 44.07133 | 8.25360 | 33827 ft | 462 kts | 56° |
| 2026-05-07 15:03 | 44.08814 | 8.29193 | 33354 ft | 461 kts | 58° |
| 2026-05-07 15:03 | 44.10423 | 8.32980 | 32918 ft | 457 kts | 58° |
| 2026-05-07 15:03 | 44.12240 | 8.36604 | 32400 ft | 453 kts | 46° |
| 2026-05-07 15:03 | 44.14435 | 8.39674 | 31802 ft | 451 kts | 36° |
| 2026-05-07 15:04 | 44.16970 | 8.42280 | 31243 ft | 448 kts | 30° |
| 2026-05-07 15:04 | 44.19520 | 8.44713 | 30681 ft | 449 kts | 30° |
| 2026-05-07 15:04 | 44.22130 | 8.47171 | 30137 ft | 451 kts | 30° |
| 2026-05-07 15:04 | 44.24709 | 8.49608 | 29507 ft | 451 kts | 30° |
| 2026-05-07 15:05 | 44.27312 | 8.52092 | 28888 ft | 451 kts | 30° |
| 2026-05-07 15:05 | 44.29885 | 8.54569 | 28348 ft | 448 kts | 31° |
| 2026-05-07 15:05 | 44.32476 | 8.57080 | 27809 ft | 446 kts | 31° |
| 2026-05-07 15:05 | 44.35004 | 8.59542 | 27287 ft | 443 kts | 31° |
| 2026-05-07 15:06 | 44.37512 | 8.61989 | 26862 ft | 438 kts | 31° |
| 2026-05-07 15:06 | 44.40015 | 8.64437 | 26476 ft | 433 kts | 31° |
| 2026-05-07 15:06 | 44.42446 | 8.66817 | 26109 ft | 427 kts | 31° |
| 2026-05-07 15:06 | 44.44881 | 8.69201 | 25728 ft | 423 kts | 31° |
| 2026-05-07 15:07 | 44.47286 | 8.71557 | 25306 ft | 419 kts | 31° |
| 2026-05-07 15:07 | 44.49672 | 8.73895 | 24817 ft | 417 kts | 31° |
| 2026-05-07 15:07 | 44.52023 | 8.76202 | 24458 ft | 413 kts | 31° |
| 2026-05-07 15:07 | 44.54365 | 8.78503 | 24107 ft | 408 kts | 31° |
| 2026-05-07 15:08 | 44.56685 | 8.80784 | 23757 ft | 404 kts | 31° |
| 2026-05-07 15:08 | 44.58961 | 8.83025 | 23368 ft | 400 kts | 32° |
| 2026-05-07 15:08 | 44.61244 | 8.85275 | 22961 ft | 395 kts | 32° |
| 2026-05-07 15:08 | 44.63462 | 8.87463 | 22632 ft | 389 kts | 32° |
| 2026-05-07 15:09 | 44.65662 | 8.89636 | 22294 ft | 384 kts | 32° |
| 2026-05-07 15:09 | 44.67823 | 8.91771 | 21980 ft | 378 kts | 32° |
| 2026-05-07 15:09 | 44.69981 | 8.93905 | 21646 ft | 373 kts | 32° |
| 2026-05-07 15:09 | 44.72101 | 8.96003 | 21328 ft | 369 kts | 32° |
| 2026-05-07 15:10 | 44.74181 | 8.98064 | 21017 ft | 364 kts | 32° |
| 2026-05-07 15:10 | 44.76260 | 9.00124 | 20618 ft | 363 kts | 32° |
| 2026-05-07 15:10 | 44.78325 | 9.02172 | 20188 ft | 363 kts | 32° |
| 2026-05-07 15:10 | 44.80370 | 9.04202 | 19765 ft | 362 kts | 32° |
| 2026-05-07 15:11 | 44.82438 | 9.06259 | 19360 ft | 361 kts | 32° |
| 2026-05-07 15:11 | 44.84492 | 9.08302 | 18945 ft | 360 kts | 32° |
| 2026-05-07 15:11 | 44.86519 | 9.10321 | 18552 ft | 359 kts | 32° |
| 2026-05-07 15:11 | 44.88571 | 9.12368 | 18126 ft | 358 kts | 32° |
| 2026-05-07 15:12 | 44.90592 | 9.14385 | 17698 ft | 356 kts | 33° |
| 2026-05-07 15:12 | 44.92580 | 9.16371 | 17449 ft | 349 kts | 32° |
| 2026-05-07 15:12 | 44.94554 | 9.18347 | 17167 ft | 344 kts | 32° |
| 2026-05-07 15:12 | 44.96488 | 9.20282 | 17004 ft | 335 kts | 32° |
| 2026-05-07 15:13 | 44.98381 | 9.22179 | 16966 ft | 329 kts | 32° |
| 2026-05-07 15:13 | 45.00244 | 9.24045 | 16959 ft | 329 kts | 32° |
| 2026-05-07 15:13 | 45.02108 | 9.25912 | 16972 ft | 332 kts | 32° |
| 2026-05-07 15:13 | 45.04012 | 9.27821 | 16879 ft | 335 kts | 32° |
| 2026-05-07 15:14 | 45.05932 | 9.29749 | 16438 ft | 340 kts | 32° |
| 2026-05-07 15:14 | 45.07828 | 9.31679 | 16143 ft | 337 kts | 36° |
| 2026-05-07 15:14 | 45.09563 | 9.33931 | 15700 ft | 339 kts | 44° |
| 2026-05-07 15:14 | 45.11185 | 9.36419 | 15129 ft | 345 kts | 46° |
| 2026-05-07 15:15 | 45.12783 | 9.38985 | 14676 ft | 346 kts | 46° |
| 2026-05-07 15:15 | 45.14362 | 9.41523 | 14265 ft | 345 kts | 46° |
| 2026-05-07 15:15 | 45.15966 | 9.44075 | 13866 ft | 344 kts | 46° |
| 2026-05-07 15:15 | 45.17551 | 9.46567 | 13434 ft | 343 kts | 46° |
| 2026-05-07 15:16 | 45.19158 | 9.49076 | 12984 ft | 342 kts | 46° |
| 2026-05-07 15:16 | 45.20766 | 9.51575 | 12540 ft | 341 kts | 46° |
| 2026-05-07 15:16 | 45.22366 | 9.54057 | 12097 ft | 340 kts | 46° |
| 2026-05-07 15:16 | 45.23944 | 9.56503 | 11738 ft | 336 kts | 46° |
| 2026-05-07 15:17 | 45.25511 | 9.58933 | 11488 ft | 330 kts | 46° |
| 2026-05-07 15:17 | 45.27057 | 9.61332 | 11255 ft | 324 kts | 46° |
| 2026-05-07 15:17 | 45.28558 | 9.63662 | 10965 ft | 321 kts | 46° |
| 2026-05-07 15:17 | 45.30064 | 9.66001 | 10631 ft | 319 kts | 46° |
| 2026-05-07 15:18 | 45.31557 | 9.68324 | 10343 ft | 315 kts | 46° |
| 2026-05-07 15:18 | 45.33021 | 9.70602 | 10061 ft | 312 kts | 46° |
| 2026-05-07 15:18 | 45.34487 | 9.72884 | 9769 ft | 310 kts | 46° |
| 2026-05-07 15:18 | 45.35915 | 9.75112 | 9444 ft | 307 kts | 46° |
| 2026-05-07 15:19 | 45.37349 | 9.77348 | 9138 ft | 305 kts | 46° |
| 2026-05-07 15:19 | 45.38789 | 9.79595 | 8720 ft | 306 kts | 46° |
| 2026-05-07 15:19 | 45.40231 | 9.81825 | 8325 ft | 304 kts | 46° |
| 2026-05-07 15:19 | 45.41646 | 9.83957 | 7914 ft | 298 kts | 45° |
| 2026-05-07 15:20 | 45.43077 | 9.86099 | 7561 ft | 291 kts | 45° |
| 2026-05-07 15:20 | 45.44455 | 9.88165 | 7311 ft | 282 kts | 46° |
| 2026-05-07 15:20 | 45.45776 | 9.90153 | 7051 ft | 274 kts | 46° |
| 2026-05-07 15:20 | 45.47072 | 9.92107 | 6811 ft | 267 kts | 45° |
| 2026-05-07 15:21 | 45.48334 | 9.94010 | 6566 ft | 261 kts | 45° |
| 2026-05-07 15:21 | 45.49581 | 9.95812 | 6303 ft | 255 kts | 37° |
| 2026-05-07 15:21 | 45.51170 | 9.96885 | 5967 ft | 251 kts | 13° |
| 2026-05-07 15:21 | 45.52864 | 9.97510 | 5663 ft | 251 kts | 13° |
| 2026-05-07 15:22 | 45.54519 | 9.98132 | 5418 ft | 244 kts | 13° |
| 2026-05-07 15:22 | 45.56134 | 9.98744 | 5174 ft | 239 kts | 14° |
| 2026-05-07 15:22 | 45.57745 | 9.99356 | 4897 ft | 237 kts | 14° |
| 2026-05-07 15:22 | 45.59332 | 9.99892 | 4705 ft | 232 kts | 3° |
| 2026-05-07 15:23 | 45.60814 | 9.99369 | 4528 ft | 218 kts | 322° |
| 2026-05-07 15:23 | 45.61658 | 9.97699 | 4365 ft | 207 kts | 291° |
| 2026-05-07 15:23 | 45.62154 | 9.95754 | 4076 ft | 210 kts | 287° |
| 2026-05-07 15:23 | 45.62565 | 9.93743 | 3802 ft | 209 kts | 284° |
| 2026-05-07 15:24 | 45.62930 | 9.91754 | 3534 ft | 207 kts | 284° |
| 2026-05-07 15:24 | 45.63289 | 9.89782 | 3262 ft | 199 kts | 284° |
| 2026-05-07 15:24 | 45.63629 | 9.87912 | 2997 ft | 195 kts | 283° |
| 2026-05-07 15:24 | 45.63967 | 9.86046 | 2719 ft | 191 kts | 284° |
| 2026-05-07 15:25 | 45.64293 | 9.84244 | 2504 ft | 187 kts | 283° |
| 2026-05-07 15:25 | 45.64608 | 9.82438 | 2205 ft | 188 kts | 283° |
| 2026-05-07 15:25 | 45.64935 | 9.80647 | 1934 ft | 184 kts | 282° |
| 2026-05-07 15:25 | 45.65240 | 9.78911 | 1744 ft | 172 kts | 281° |
| 2026-05-07 15:26 | 45.65527 | 9.77364 | 1523 ft | 155 kts | 284° |
| 2026-05-07 15:26 | 45.65807 | 9.75915 | 1338 ft | 147 kts | 283° |
| 2026-05-07 15:26 | 45.66080 | 9.74508 | 1108 ft | 147 kts | 282° |
| 2026-05-07 15:26 | 45.66343 | 9.73059 | 921 ft | 150 kts | 283° |
| 2026-05-07 15:27 | 45.66605 | 9.71660 | 787 ft | 136 kts | 284° |
| 2026-05-07 15:27 | 45.66789 | 9.70660 | 786 ft | 74 kts | 284° |
| 2026-05-07 15:27 | 45.66872 | 9.70216 | 786 ft | 27 kts | 284° |
| 2026-05-07 15:27 | 45.66873 | 9.69977 | 786 ft | 18 kts | 249° |
| 2026-05-07 15:28 | 45.66832 | 9.69864 | 786 ft | 9 kts | 242° |
| 2026-05-07 15:28 | 45.66805 | 9.69794 | 786 ft | 7 kts | 239° |
| 2026-05-07 15:28 | 45.66789 | 9.69761 | 786 ft | 2 kts | 231° |
| 2026-05-07 15:28 | 45.66785 | 9.69731 | 786 ft | 5 kts | 265° |
| 2026-05-07 15:29 | 45.66763 | 9.69696 | 786 ft | 5 kts | 201° |
| 2026-05-07 15:29 | 45.66729 | 9.69684 | 786 ft | 5 kts | 194° |
| 2026-05-07 15:29 | 45.66708 | 9.69676 | 786 ft | 1 kts | 195° |
| 2026-05-07 15:29 | 45.66707 | 9.69676 | 786 ft | 0 kts | 195° |